FMEP/ZSE METAR and TAF weather

Enter ICAO airport designator
Station Type Date Time Source
FMEP METAR 2020/09/21 06:00 UTC NOAA

FMEP 210600Z AUTO 25004KT 180V330 CAVOK 25/15 Q1021


Station Type Date Time Source
FMEP Decoded METAR 2020/09/21 06:00 UTC NOAA

Saint-Pierre, Reunion (FMEP) 21-20S 055-29E 53M
Sep 21, 2020 - 02:00 AM EDT / 2020.09.21 0600 UTC
Wind: from the WSW (250 degrees) at 5 MPH (4 KT) (direction variable):0
Visibility: greater than 7 mile(s):0
Temperature: 77 F (25 C)
Dew Point: 59 F (15 C)
Relative Humidity: 53%
Pressure (altimeter): 30.15 in. Hg (1021 hPa)
ob: FMEP 210600Z AUTO 25004KT 180V330 CAVOK 25/15 Q1021
cycle: 6

Station Type Date Time Source
FMEP TAF 2020/08/08 06:00 UTC NOAA

TAF FMEP 080500Z 0806/0815 27010KT 9999 FEW030

Example: see airport list